Golden Valley, Arizona
Current Conditions -  °F | °C
As of 12:51 PM on Tuesday 21 Oct 2014 (Local Time) from KIGM Reporting Station
Clear Clear  
Wind Chill: 26°   Ceiling: Unl
Heat Index: 26°   Visibility: 10mi
Dew Point:   Wind: 6mph
Humidity: 28%   Direction: 200°SSW
Pressure: 29.95"   Gusts: 17mph
Location:  35.22°N, 114.22°W
Report Text: KIGM 211951Z AUTO 20005G15KT 10SM CLR 26/06 A2995 RMK AO2 SLP081 T02610061
Loading
Personal Weather Stations






























Interactive Weather Map
Tropical Storm Tracking
New forecast layout! Learn more

10-Day Weather Forecast

Advertisements
Track Severe Weather on mobile